sensor_id;sensor_type;location;lat;lon;timestamp;pressure;altitude;pressure_sealevel;temperature;humidity
78014;BME280;67222;50.182;8.734;2023-09-08T04:31:50;100771.53;;;14.82;90.17
78014;BME280;67222;50.182;8.734;2023-09-08T04:34:15;100771.75;;;14.81;89.78
78014;BME280;67222;50.182;8.734;2023-09-08T04:36:40;100779.44;;;14.77;90.58
78014;BME280;67222;50.182;8.734;2023-09-08T04:39:05;100765.66;;;14.74;90.85
78014;BME280;67222;50.182;8.734;2023-09-08T04:41:33;100775.84;;;14.65;90.92
78014;BME280;67222;50.182;8.734;2023-09-08T04:43:59;100782.22;;;14.71;90.75
78014;BME280;67222;50.182;8.734;2023-09-08T04:46:24;100779.94;;;14.68;90.98
78014;BME280;67222;50.182;8.734;2023-09-08T04:48:50;100785.94;;;14.70;90.61
78014;BME280;67222;50.182;8.734;2023-09-08T04:51:15;100781.97;;;14.54;90.32
78014;BME280;67222;50.182;8.734;2023-09-08T04:53:40;100795.16;;;14.56;90.73
78014;BME280;67222;50.182;8.734;2023-09-08T04:56:05;100791.13;;;14.65;91.36
78014;BME280;67222;50.182;8.734;2023-09-08T04:58:31;100798.47;;;14.76;90.52
78014;BME280;67222;50.182;8.734;2023-09-08T05:00:56;100800.06;;;14.59;90.00
78014;BME280;67222;50.182;8.734;2023-09-08T05:03:21;100795.63;;;14.71;90.54
78014;BME280;67222;50.182;8.734;2023-09-08T05:05:46;100796.69;;;14.70;89.54
78014;BME280;67222;50.182;8.734;2023-09-08T05:08:12;100802.28;;;14.43;90.22
78014;BME280;67222;50.182;8.734;2023-09-08T05:10:37;100798.44;;;14.58;91.26
78014;BME280;67222;50.182;8.734;2023-09-08T05:13:02;100798.53;;;14.69;90.81
78014;BME280;67222;50.182;8.734;2023-09-08T05:15:28;100802.69;;;14.65;90.98
78014;BME280;67222;50.182;8.734;2023-09-08T05:17:53;100804.09;;;14.68;90.55
78014;BME280;67222;50.182;8.734;2023-09-08T05:20:18;100804.06;;;14.49;90.03
78014;BME280;67222;50.182;8.734;2023-09-08T05:22:44;100800.28;;;14.57;91.61
78014;BME280;67222;50.182;8.734;2023-09-08T05:25:09;100808.34;;;14.57;91.46
78014;BME280;67222;50.182;8.734;2023-09-08T05:27:34;100797.75;;;14.62;91.43
78014;BME280;67222;50.182;8.734;2023-09-08T05:30:00;100806.50;;;14.76;91.38
78014;BME280;67222;50.182;8.734;2023-09-08T05:32:25;100804.88;;;14.75;90.60
78014;BME280;67222;50.182;8.734;2023-09-08T05:34:50;100807.94;;;14.78;90.90
78014;BME280;67222;50.182;8.734;2023-09-08T05:37:15;100806.88;;;14.79;90.55
78014;BME280;67222;50.182;8.734;2023-09-08T05:39:41;100810.16;;;14.81;90.96
78014;BME280;67222;50.182;8.734;2023-09-08T05:42:06;100813.53;;;14.77;91.06
78014;BME280;67222;50.182;8.734;2023-09-08T05:44:31;100805.63;;;14.82;90.79
78014;BME280;67222;50.182;8.734;2023-09-08T05:46:57;100808.53;;;14.80;91.55
78014;BME280;67222;50.182;8.734;2023-09-08T05:49:22;100807.63;;;14.87;91.39
78014;BME280;67222;50.182;8.734;2023-09-08T05:51:47;100811.81;;;14.82;91.68
78014;BME280;67222;50.182;8.734;2023-09-08T05:54:13;100816.50;;;14.87;91.76
78014;BME280;67222;50.182;8.734;2023-09-08T05:56:38;100810.25;;;14.93;91.50
78014;BME280;67222;50.182;8.734;2023-09-08T05:59:04;100817.66;;;14.98;91.34
78014;BME280;67222;50.182;8.734;2023-09-08T06:01:30;100826.38;;;14.93;91.02
78014;BME280;67222;50.182;8.734;2023-09-08T06:03:56;100820.34;;;14.98;91.41
78014;BME280;67222;50.182;8.734;2023-09-08T06:06:21;100822.56;;;15.01;91.01
78014;BME280;67222;50.182;8.734;2023-09-08T06:08:47;100820.03;;;15.06;91.65
78014;BME280;67222;50.182;8.734;2023-09-08T06:11:12;100819.97;;;15.12;91.74
78014;BME280;67222;50.182;8.734;2023-09-08T06:13:38;100820.66;;;15.08;90.84
78014;BME280;67222;50.182;8.734;2023-09-08T06:16:03;100824.81;;;15.22;91.07
78014;BME280;67222;50.182;8.734;2023-09-08T06:18:29;100813.84;;;15.24;91.07
78014;BME280;67222;50.182;8.734;2023-09-08T06:20:57;100815.88;;;15.28;91.81
78014;BME280;67222;50.182;8.734;2023-09-08T06:23:22;100810.63;;;15.33;90.55
78014;BME280;67222;50.182;8.734;2023-09-08T06:25:48;100817.72;;;15.46;90.99
78014;BME280;67222;50.182;8.734;2023-09-08T06:28:14;100815.63;;;15.48;90.15
78014;BME280;67222;50.182;8.734;2023-09-08T06:30:39;100818.91;;;15.50;89.50
78014;BME280;67222;50.182;8.734;2023-09-08T06:33:07;100822.13;;;15.59;89.44
78014;BME280;67222;50.182;8.734;2023-09-08T06:35:32;100822.41;;;15.69;89.81
78014;BME280;67222;50.182;8.734;2023-09-08T06:37:59;100820.59;;;15.81;89.18
78014;BME280;67222;50.182;8.734;2023-09-08T06:40:24;100821.53;;;15.87;90.03
78014;BME280;67222;50.182;8.734;2023-09-08T06:42:49;100818.38;;;15.90;90.70
78014;BME280;67222;50.182;8.734;2023-09-08T06:45:15;100811.63;;;15.99;89.73
78014;BME280;67222;50.182;8.734;2023-09-08T06:47:40;100808.03;;;16.05;89.31
78014;BME280;67222;50.182;8.734;2023-09-08T06:50:05;100816.72;;;16.19;88.94
78014;BME280;67222;50.182;8.734;2023-09-08T06:52:32;100819.06;;;16.27;88.32
78014;BME280;67222;50.182;8.734;2023-09-08T06:54:57;100811.22;;;16.25;88.15
78014;BME280;67222;50.182;8.734;2023-09-08T06:57:22;100810.75;;;16.28;87.17
78014;BME280;67222;50.182;8.734;2023-09-08T06:59:47;100809.16;;;16.39;87.70
78014;BME280;67222;50.182;8.734;2023-09-08T07:02:13;100812.66;;;16.51;87.11
78014;BME280;67222;50.182;8.734;2023-09-08T07:04:38;100802.72;;;16.63;87.59
78014;BME280;67222;50.182;8.734;2023-09-08T07:07:03;100810.13;;;16.68;87.32
78014;BME280;67222;50.182;8.734;2023-09-08T07:09:35;100810.22;;;16.73;86.99
78014;BME280;67222;50.182;8.734;2023-09-08T07:12:02;100813.63;;;16.80;86.54
78014;BME280;67222;50.182;8.734;2023-09-08T07:14:28;100820.41;;;16.83;86.72
78014;BME280;67222;50.182;8.734;2023-09-08T07:16:53;100805.91;;;16.84;86.83
78014;BME280;67222;50.182;8.734;2023-09-08T07:19:18;100815.13;;;16.88;86.86
78014;BME280;67222;50.182;8.734;2023-09-08T07:21:43;100808.47;;;16.90;87.16
78014;BME280;67222;50.182;8.734;2023-09-08T07:24:09;100803.78;;;16.98;87.06
78014;BME280;67222;50.182;8.734;2023-09-08T07:26:34;100806.44;;;17.09;86.87
78014;BME280;67222;50.182;8.734;2023-09-08T07:28:59;100805.75;;;17.14;86.21
78014;BME280;67222;50.182;8.734;2023-09-08T07:31:24;100807.00;;;17.23;86.30
78014;BME280;67222;50.182;8.734;2023-09-08T07:33:50;100803.94;;;17.31;86.26
78014;BME280;67222;50.182;8.734;2023-09-08T07:36:15;100812.13;;;17.36;85.06
78014;BME280;67222;50.182;8.734;2023-09-08T07:38:40;100798.75;;;17.41;86.03
78014;BME280;67222;50.182;8.734;2023-09-08T07:41:06;100799.06;;;17.45;85.71
78014;BME280;67222;50.182;8.734;2023-09-08T07:43:31;100807.63;;;17.53;85.78
78014;BME280;67222;50.182;8.734;2023-09-08T07:45:56;100796.94;;;17.59;85.81
78014;BME280;67222;50.182;8.734;2023-09-08T07:48:21;100794.31;;;17.64;85.70
78014;BME280;67222;50.182;8.734;2023-09-08T07:50:47;100796.09;;;17.70;85.88
78014;BME280;67222;50.182;8.734;2023-09-08T07:53:12;100799.69;;;17.75;85.47
78014;BME280;67222;50.182;8.734;2023-09-08T07:55:37;100792.75;;;17.79;85.05
78014;BME280;67222;50.182;8.734;2023-09-08T07:58:03;100799.28;;;17.83;84.86
78014;BME280;67222;50.182;8.734;2023-09-08T08:00:31;100795.41;;;17.91;84.93
78014;BME280;67222;50.182;8.734;2023-09-08T08:02:57;100798.75;;;17.98;84.95
78014;BME280;67222;50.182;8.734;2023-09-08T08:05:23;100805.91;;;18.04;83.93
78014;BME280;67222;50.182;8.734;2023-09-08T08:07:49;100800.66;;;18.14;83.79
78014;BME280;67222;50.182;8.734;2023-09-08T08:10:14;100799.78;;;18.26;83.47
78014;BME280;67222;50.182;8.734;2023-09-08T08:12:40;100800.75;;;18.36;83.50
78014;BME280;67222;50.182;8.734;2023-09-08T08:15:06;100806.81;;;18.43;83.47
78014;BME280;67222;50.182;8.734;2023-09-08T08:17:32;100812.84;;;18.51;83.02
78014;BME280;67222;50.182;8.734;2023-09-08T08:19:57;100795.19;;;18.60;82.46
78014;BME280;67222;50.182;8.734;2023-09-08T08:22:32;100797.47;;;18.68;79.85
78014;BME280;67222;50.182;8.734;2023-09-08T08:24:57;100808.09;;;18.74;80.54
78014;BME280;67222;50.182;8.734;2023-09-08T08:27:23;100802.84;;;18.85;80.39
78014;BME280;67222;50.182;8.734;2023-09-08T08:29:48;100804.81;;;18.89;79.86
78014;BME280;67222;50.182;8.734;2023-09-08T08:32:13;100801.91;;;18.96;79.51
78014;BME280;67222;50.182;8.734;2023-09-08T08:34:38;100795.06;;;19.10;76.42
78014;BME280;67222;50.182;8.734;2023-09-08T08:37:04;100798.47;;;19.22;77.94
78014;BME280;67222;50.182;8.734;2023-09-08T08:39:29;100802.69;;;19.35;77.12
78014;BME280;67222;50.182;8.734;2023-09-08T08:41:54;100796.06;;;19.48;75.03
78014;BME280;67222;50.182;8.734;2023-09-08T08:44:20;100793.53;;;19.58;75.62
78014;BME280;67222;50.182;8.734;2023-09-08T08:46:46;100790.09;;;19.67;75.99
78014;BME280;67222;50.182;8.734;2023-09-08T08:49:12;100789.38;;;19.77;76.76
78014;BME280;67222;50.182;8.734;2023-09-08T08:51:42;100784.06;;;19.87;76.82
78014;BME280;67222;50.182;8.734;2023-09-08T08:54:09;100788.81;;;20.02;76.82
78014;BME280;67222;50.182;8.734;2023-09-08T08:56:36;100792.13;;;20.09;74.41
78014;BME280;67222;50.182;8.734;2023-09-08T08:59:01;100778.41;;;20.21;71.30
78014;BME280;67222;50.182;8.734;2023-09-08T09:01:28;100788.28;;;20.37;71.93
78014;BME280;67222;50.182;8.734;2023-09-08T09:03:54;100785.81;;;20.68;69.48
78014;BME280;67222;50.182;8.734;2023-09-08T09:06:20;100784.25;;;20.82;68.87
78014;BME280;67222;50.182;8.734;2023-09-08T09:08:45;100776.19;;;20.97;68.81
78014;BME280;67222;50.182;8.734;2023-09-08T09:11:12;100785.50;;;21.11;69.54
78014;BME280;67222;50.182;8.734;2023-09-08T09:13:37;100783.16;;;21.35;66.91
78014;BME280;67222;50.182;8.734;2023-09-08T09:16:03;100775.91;;;21.56;66.49
78014;BME280;67222;50.182;8.734;2023-09-08T09:18:30;100772.41;;;21.71;66.68
78014;BME280;67222;50.182;8.734;2023-09-08T09:20:58;100775.16;;;21.81;65.64
78014;BME280;67222;50.182;8.734;2023-09-08T09:23:34;100780.31;;;21.93;64.34
78014;BME280;67222;50.182;8.734;2023-09-08T09:26:01;100775.97;;;22.02;65.60
78014;BME280;67222;50.182;8.734;2023-09-08T09:28:29;100778.44;;;22.09;64.76
78014;BME280;67222;50.182;8.734;2023-09-08T09:30:55;100769.75;;;22.22;66.19
78014;BME280;67222;50.182;8.734;2023-09-08T09:33:21;100773.56;;;22.36;64.95
78014;BME280;67222;50.182;8.734;2023-09-08T09:35:54;100776.78;;;22.48;63.52
78014;BME280;67222;50.182;8.734;2023-09-08T09:38:20;100771.03;;;22.65;63.08
78014;BME280;67222;50.182;8.734;2023-09-08T09:40:47;100766.66;;;22.79;62.70
78014;BME280;67222;50.182;8.734;2023-09-08T09:43:14;100762.88;;;22.90;62.96
78014;BME280;67222;50.182;8.734;2023-09-08T09:45:41;100766.91;;;22.98;63.05
78014;BME280;67222;50.182;8.734;2023-09-08T09:48:08;100769.31;;;23.10;61.95
78014;BME280;67222;50.182;8.734;2023-09-08T09:50:36;100768.44;;;23.19;60.41
78014;BME280;67222;50.182;8.734;2023-09-08T09:53:08;100765.63;;;23.40;61.78
78014;BME280;67222;50.182;8.734;2023-09-08T09:55:36;100766.34;;;23.55;60.81
78014;BME280;67222;50.182;8.734;2023-09-08T09:58:02;100765.28;;;23.56;59.25
78014;BME280;67222;50.182;8.734;2023-09-08T10:00:29;100760.06;;;23.65;58.76
78014;BME280;67222;50.182;8.734;2023-09-08T10:02:55;100768.41;;;23.79;59.63
78014;BME280;67222;50.182;8.734;2023-09-08T10:05:21;100767.75;;;23.92;59.57
78014;BME280;67222;50.182;8.734;2023-09-08T10:07:47;100765.00;;;23.97;58.85
78014;BME280;67222;50.182;8.734;2023-09-08T10:10:14;100767.59;;;24.12;58.79
78014;BME280;67222;50.182;8.734;2023-09-08T10:12:45;100755.28;;;24.20;58.25
78014;BME280;67222;50.182;8.734;2023-09-08T10:15:11;100755.44;;;24.34;57.23
78014;BME280;67222;50.182;8.734;2023-09-08T10:17:38;100744.97;;;24.46;56.88
78014;BME280;67222;50.182;8.734;2023-09-08T10:20:08;100748.50;;;24.46;56.62
78014;BME280;67222;50.182;8.734;2023-09-08T10:22:38;100747.03;;;24.59;56.62
78014;BME280;67222;50.182;8.734;2023-09-08T10:25:07;100744.75;;;24.66;55.19
78014;BME280;67222;50.182;8.734;2023-09-08T10:27:33;100739.50;;;24.75;54.72
78014;BME280;67222;50.182;8.734;2023-09-08T10:30:02;100741.25;;;24.85;55.76
78014;BME280;67222;50.182;8.734;2023-09-08T10:32:28;100732.66;;;24.72;55.38
78014;BME280;67222;50.182;8.734;2023-09-08T10:34:54;100731.59;;;24.73;54.44
78014;BME280;67222;50.182;8.734;2023-09-08T10:37:25;100744.75;;;24.90;53.93
78014;BME280;67222;50.182;8.734;2023-09-08T10:39:52;100734.06;;;24.94;54.34
78014;BME280;67222;50.182;8.734;2023-09-08T10:42:20;100730.34;;;25.09;54.18
78014;BME280;67222;50.182;8.734;2023-09-08T10:50:04;100721.47;;;25.41;53.24
78014;BME280;67222;50.182;8.734;2023-09-08T10:52:30;100722.94;;;25.52;53.00
78014;BME280;67222;50.182;8.734;2023-09-08T10:54:58;100726.56;;;25.66;52.96
78014;BME280;67222;50.182;8.734;2023-09-08T10:57:24;100725.44;;;25.67;52.67
78014;BME280;67222;50.182;8.734;2023-09-08T11:00:04;100721.81;;;25.90;51.85
78014;BME280;67222;50.182;8.734;2023-09-08T11:02:41;100715.34;;;26.00;52.30
78014;BME280;67222;50.182;8.734;2023-09-08T11:05:13;100713.25;;;26.11;51.26
78014;BME280;67222;50.182;8.734;2023-09-08T11:07:40;100716.00;;;26.11;51.73
78014;BME280;67222;50.182;8.734;2023-09-08T11:10:07;100717.00;;;26.15;52.22
78014;BME280;67222;50.182;8.734;2023-09-08T11:12:33;100716.59;;;26.21;50.81
78014;BME280;67222;50.182;8.734;2023-09-08T11:14:59;100713.50;;;26.28;51.66
78014;BME280;67222;50.182;8.734;2023-09-08T11:17:33;100697.34;;;26.45;51.08
78014;BME280;67222;50.182;8.734;2023-09-08T11:20:00;100706.75;;;26.53;50.05
78014;BME280;67222;50.182;8.734;2023-09-08T11:22:26;100698.88;;;26.65;49.86
78014;BME280;67222;50.182;8.734;2023-09-08T11:24:53;100700.47;;;26.66;50.33
78014;BME280;67222;50.182;8.734;2023-09-08T11:27:20;100694.59;;;26.73;49.00
78014;BME280;67222;50.182;8.734;2023-09-08T11:29:46;100693.28;;;26.70;50.04
78014;BME280;67222;50.182;8.734;2023-09-08T11:32:12;100688.91;;;26.83;50.87
78014;BME280;67222;50.182;8.734;2023-09-08T11:34:37;100684.16;;;26.89;50.99
78014;BME280;67222;50.182;8.734;2023-09-08T11:37:13;100681.09;;;26.90;49.04
78014;BME280;67222;50.182;8.734;2023-09-08T11:39:40;100683.13;;;26.98;49.65
78014;BME280;67222;50.182;8.734;2023-09-08T11:42:07;100685.34;;;27.10;49.59
78014;BME280;67222;50.182;8.734;2023-09-08T11:44:36;100676.50;;;27.13;48.45
78014;BME280;67222;50.182;8.734;2023-09-08T11:47:03;100680.06;;;27.13;49.33
78014;BME280;67222;50.182;8.734;2023-09-08T11:49:39;100683.31;;;27.15;48.13
78014;BME280;67222;50.182;8.734;2023-09-08T11:52:05;100683.56;;;27.28;47.77
78014;BME280;67222;50.182;8.734;2023-09-08T11:54:35;100680.31;;;27.39;49.25
78014;BME280;67222;50.182;8.734;2023-09-08T11:57:02;100673.75;;;27.49;46.82
78014;BME280;67222;50.182;8.734;2023-09-08T11:59:30;100680.63;;;27.60;46.94
78014;BME280;67222;50.182;8.734;2023-09-08T12:01:56;100673.91;;;27.66;47.54
78014;BME280;67222;50.182;8.734;2023-09-08T12:04:22;100672.09;;;27.62;46.48
78014;BME280;67222;50.182;8.734;2023-09-08T12:06:52;100677.47;;;27.67;47.51
78014;BME280;67222;50.182;8.734;2023-09-08T12:09:20;100675.75;;;27.71;47.80
78014;BME280;67222;50.182;8.734;2023-09-08T12:11:45;100678.84;;;27.78;47.22
78014;BME280;67222;50.182;8.734;2023-09-08T12:14:12;100673.41;;;27.87;47.85
78014;BME280;67222;50.182;8.734;2023-09-08T12:16:38;100657.03;;;28.04;47.90
78014;BME280;67222;50.182;8.734;2023-09-08T12:19:03;100659.69;;;28.09;46.00
78014;BME280;67222;50.182;8.734;2023-09-08T12:21:29;100651.56;;;28.04;46.33
78014;BME280;67222;50.182;8.734;2023-09-08T12:23:57;100652.84;;;27.98;47.33
78014;BME280;67222;50.182;8.734;2023-09-08T12:26:24;100655.81;;;28.10;49.27
78014;BME280;67222;50.182;8.734;2023-09-08T12:28:50;100655.34;;;28.17;44.84
78014;BME280;67222;50.182;8.734;2023-09-08T12:31:17;100659.81;;;28.35;46.46
78014;BME280;67222;50.182;8.734;2023-09-08T12:33:43;100662.06;;;28.42;44.46
78014;BME280;67222;50.182;8.734;2023-09-08T12:36:16;100659.34;;;28.42;45.49
78014;BME280;67222;50.182;8.734;2023-09-08T12:38:50;100653.66;;;28.29;44.62
78014;BME280;67222;50.182;8.734;2023-09-08T12:41:16;100647.84;;;28.31;44.22
78014;BME280;67222;50.182;8.734;2023-09-08T12:43:41;100653.03;;;28.32;45.61
78014;BME280;67222;50.182;8.734;2023-09-08T12:46:07;100655.84;;;28.50;46.90
78014;BME280;67222;50.182;8.734;2023-09-08T12:48:32;100656.16;;;28.57;45.20
78014;BME280;67222;50.182;8.734;2023-09-08T12:50:57;100654.25;;;28.66;45.15
78014;BME280;67222;50.182;8.734;2023-09-08T12:53:23;100639.41;;;28.67;44.60
78014;BME280;67222;50.182;8.734;2023-09-08T12:55:48;100633.88;;;28.58;43.50
78014;BME280;67222;50.182;8.734;2023-09-08T12:58:15;100640.53;;;28.66;44.43
78014;BME280;67222;50.182;8.734;2023-09-08T13:00:40;100639.91;;;28.69;43.76
78014;BME280;67222;50.182;8.734;2023-09-08T13:03:05;100642.13;;;28.58;43.31
78014;BME280;67222;50.182;8.734;2023-09-08T13:05:31;100638.72;;;28.61;42.56
78014;BME280;67222;50.182;8.734;2023-09-08T13:07:56;100632.78;;;28.68;42.46
78014;BME280;67222;50.182;8.734;2023-09-08T13:10:21;100632.16;;;28.71;43.17
78014;BME280;67222;50.182;8.734;2023-09-08T13:12:47;100627.94;;;28.74;43.14
78014;BME280;67222;50.182;8.734;2023-09-08T13:15:14;100623.91;;;28.71;43.40
78014;BME280;67222;50.182;8.734;2023-09-08T13:17:39;100622.50;;;28.82;45.54
78014;BME280;67222;50.182;8.734;2023-09-08T13:20:05;100621.56;;;28.87;42.73
78014;BME280;67222;50.182;8.734;2023-09-08T13:22:31;100624.78;;;28.89;42.46
78014;BME280;67222;50.182;8.734;2023-09-08T13:24:56;100616.88;;;28.87;41.65
78014;BME280;67222;50.182;8.734;2023-09-08T13:27:22;100614.59;;;28.89;41.94
78014;BME280;67222;50.182;8.734;2023-09-08T13:29:47;100618.00;;;29.04;42.57
78014;BME280;67222;50.182;8.734;2023-09-08T13:32:13;100613.13;;;29.18;42.30
78014;BME280;67222;50.182;8.734;2023-09-08T13:34:38;100609.59;;;29.09;41.09
78014;BME280;67222;50.182;8.734;2023-09-08T13:37:04;100608.78;;;29.00;41.56
78014;BME280;67222;50.182;8.734;2023-09-08T13:39:29;100604.44;;;28.90;41.90
78014;BME280;67222;50.182;8.734;2023-09-08T13:41:56;100608.63;;;28.87;41.21
78014;BME280;67222;50.182;8.734;2023-09-08T13:44:23;100597.81;;;28.91;42.34
78014;BME280;67222;50.182;8.734;2023-09-08T13:46:49;100601.19;;;28.97;41.79
78014;BME280;67222;50.182;8.734;2023-09-08T13:49:15;100598.28;;;28.93;40.73
78014;BME280;67222;50.182;8.734;2023-09-08T13:51:40;100592.47;;;28.86;42.49
78014;BME280;67222;50.182;8.734;2023-09-08T13:54:06;100597.66;;;28.87;42.19
78014;BME280;67222;50.182;8.734;2023-09-08T13:56:32;100596.34;;;28.93;42.58
78014;BME280;67222;50.182;8.734;2023-09-08T13:58:57;100586.81;;;28.91;43.42
78014;BME280;67222;50.182;8.734;2023-09-08T14:01:22;100586.50;;;28.92;39.22
78014;BME280;67222;50.182;8.734;2023-09-08T14:03:48;100588.41;;;28.83;39.98
78014;BME280;67222;50.182;8.734;2023-09-08T14:06:17;100590.50;;;28.69;40.60
78014;BME280;67222;50.182;8.734;2023-09-08T14:08:43;100587.72;;;28.60;42.70
78014;BME280;67222;50.182;8.734;2023-09-08T14:11:08;100578.53;;;28.48;41.93
78014;BME280;67222;50.182;8.734;2023-09-08T14:13:34;100579.13;;;28.36;42.32
78014;BME280;67222;50.182;8.734;2023-09-08T14:16:00;100575.28;;;28.46;43.91
78014;BME280;67222;50.182;8.734;2023-09-08T14:18:25;100576.44;;;28.53;44.32
78014;BME280;67222;50.182;8.734;2023-09-08T14:20:50;100585.97;;;28.64;45.74
78014;BME280;67222;50.182;8.734;2023-09-08T14:23:16;100579.50;;;28.52;41.71
78014;BME280;67222;50.182;8.734;2023-09-08T14:25:41;100584.81;;;28.57;44.75
78014;BME280;67222;50.182;8.734;2023-09-08T14:28:06;100578.84;;;28.55;42.35
78014;BME280;67222;50.182;8.734;2023-09-08T14:30:31;100579.50;;;28.52;42.54
78014;BME280;67222;50.182;8.734;2023-09-08T14:32:57;100577.53;;;28.44;42.95
78014;BME280;67222;50.182;8.734;2023-09-08T14:35:22;100570.63;;;28.46;43.71
78014;BME280;67222;50.182;8.734;2023-09-08T14:37:47;100573.63;;;28.27;41.42
78014;BME280;67222;50.182;8.734;2023-09-08T14:40:14;100572.28;;;28.25;41.93
78014;BME280;67222;50.182;8.734;2023-09-08T14:42:39;100574.69;;;28.18;41.78
78014;BME280;67222;50.182;8.734;2023-09-08T14:45:05;100571.38;;;28.29;45.71
78014;BME280;67222;50.182;8.734;2023-09-08T14:47:32;100568.88;;;28.19;41.92
78014;BME280;67222;50.182;8.734;2023-09-08T14:49:57;100566.16;;;28.19;44.97
78014;BME280;67222;50.182;8.734;2023-09-08T14:52:23;100571.47;;;28.24;43.45
78014;BME280;67222;50.182;8.734;2023-09-08T14:54:48;100567.63;;;28.25;46.41
78014;BME280;67222;50.182;8.734;2023-09-08T14:57:14;100571.63;;;28.19;42.23
78014;BME280;67222;50.182;8.734;2023-09-08T14:59:39;100564.53;;;28.18;42.79
78014;BME280;67222;50.182;8.734;2023-09-08T15:02:06;100570.41;;;27.94;42.23
78014;BME280;67222;50.182;8.734;2023-09-08T15:04:32;100560.59;;;28.02;43.69
78014;BME280;67222;50.182;8.734;2023-09-08T15:06:57;100563.97;;;27.99;43.31
78014;BME280;67222;50.182;8.734;2023-09-08T15:09:23;100561.25;;;27.99;45.33
78014;BME280;67222;50.182;8.734;2023-09-08T15:11:48;100560.13;;;28.00;42.37
78014;BME280;67222;50.182;8.734;2023-09-08T15:14:13;100558.81;;;27.97;44.83
78014;BME280;67222;50.182;8.734;2023-09-08T15:16:39;100557.03;;;27.93;43.69
78014;BME280;67222;50.182;8.734;2023-09-08T15:19:04;100558.66;;;27.94;44.89
78014;BME280;67222;50.182;8.734;2023-09-08T15:21:29;100568.25;;;27.83;48.63
78014;BME280;67222;50.182;8.734;2023-09-08T15:23:57;100559.06;;;27.79;44.49
78014;BME280;67222;50.182;8.734;2023-09-08T15:26:22;100558.84;;;27.66;45.25
78014;BME280;67222;50.182;8.734;2023-09-08T15:28:48;100559.41;;;27.55;43.62
78014;BME280;67222;50.182;8.734;2023-09-08T15:31:15;100556.34;;;27.56;44.67
78014;BME280;67222;50.182;8.734;2023-09-08T15:33:41;100558.94;;;27.61;49.57
78014;BME280;67222;50.182;8.734;2023-09-08T15:36:06;100547.00;;;27.57;49.62
78014;BME280;67222;50.182;8.734;2023-09-08T15:38:32;100551.78;;;27.52;50.31
78014;BME280;67222;50.182;8.734;2023-09-08T15:43:43;100557.38;;;27.38;52.59
78014;BME280;67222;50.182;8.734;2023-09-08T15:46:09;100565.50;;;27.29;54.38
78014;BME280;67222;50.182;8.734;2023-09-08T15:48:36;100562.84;;;27.15;56.51
78014;BME280;67222;50.182;8.734;2023-09-08T15:51:01;100559.38;;;27.01;56.54
78014;BME280;67222;50.182;8.734;2023-09-08T15:53:27;100561.44;;;26.82;48.24
78014;BME280;67222;50.182;8.734;2023-09-08T15:55:53;100554.75;;;26.74;51.41
78014;BME280;67222;50.182;8.734;2023-09-08T15:58:18;100559.16;;;26.62;51.21
78014;BME280;67222;50.182;8.734;2023-09-08T16:00:43;100556.19;;;26.58;49.17
78014;BME280;67222;50.182;8.734;2023-09-08T16:03:08;100552.16;;;26.55;45.70
78014;BME280;67222;50.182;8.734;2023-09-08T16:05:34;100558.94;;;26.58;47.91
78014;BME280;67222;50.182;8.734;2023-09-08T16:07:59;100555.63;;;26.47;50.63
78014;BME280;67222;50.182;8.734;2023-09-08T16:10:24;100552.72;;;26.44;51.16
78014;BME280;67222;50.182;8.734;2023-09-08T16:12:49;100556.41;;;26.34;54.31
78014;BME280;67222;50.182;8.734;2023-09-08T16:15:15;100553.41;;;26.22;55.18
78014;BME280;67222;50.182;8.734;2023-09-08T16:17:40;100554.84;;;26.06;49.77
78014;BME280;67222;50.182;8.734;2023-09-08T16:20:06;100550.50;;;26.05;49.48
78014;BME280;67222;50.182;8.734;2023-09-08T16:22:31;100556.03;;;26.00;53.48
78014;BME280;67222;50.182;8.734;2023-09-08T16:24:57;100550.38;;;25.96;52.37
78014;BME280;67222;50.182;8.734;2023-09-08T16:27:22;100547.25;;;25.89;53.13
78014;BME280;67222;50.182;8.734;2023-09-08T16:29:47;100547.75;;;25.91;53.12
78014;BME280;67222;50.182;8.734;2023-09-08T16:32:13;100547.31;;;25.84;56.04
78014;BME280;67222;50.182;8.734;2023-09-08T16:34:38;100550.16;;;25.79;56.04
78014;BME280;67222;50.182;8.734;2023-09-08T16:37:03;100550.63;;;25.67;57.62
78014;BME280;67222;50.182;8.734;2023-09-08T16:39:29;100548.69;;;25.54;58.04
78014;BME280;67222;50.182;8.734;2023-09-08T16:41:55;100543.88;;;25.46;58.03
78014;BME280;67222;50.182;8.734;2023-09-08T16:44:20;100546.00;;;25.35;55.59
78014;BME280;67222;50.182;8.734;2023-09-08T16:46:45;100547.41;;;25.32;52.62
78014;BME280;67222;50.182;8.734;2023-09-08T16:49:11;100544.19;;;25.30;50.78
78014;BME280;67222;50.182;8.734;2023-09-08T16:51:36;100548.53;;;25.31;54.27
78014;BME280;67222;50.182;8.734;2023-09-08T16:54:01;100553.22;;;25.26;56.73
78014;BME280;67222;50.182;8.734;2023-09-08T16:56:27;100549.50;;;25.22;57.00
78014;BME280;67222;50.182;8.734;2023-09-08T16:58:53;100551.28;;;25.13;57.42
78014;BME280;67222;50.182;8.734;2023-09-08T17:01:18;100550.38;;;24.98;56.32
78014;BME280;67222;50.182;8.734;2023-09-08T17:03:43;100560.56;;;24.93;56.07
78014;BME280;67222;50.182;8.734;2023-09-08T17:06:09;100553.13;;;24.80;56.22
78014;BME280;67222;50.182;8.734;2023-09-08T17:08:34;100552.09;;;24.75;57.96
78014;BME280;67222;50.182;8.734;2023-09-08T17:11:03;100545.66;;;24.66;60.02
78014;BME280;67222;50.182;8.734;2023-09-08T17:13:28;100553.47;;;24.54;60.59
78014;BME280;67222;50.182;8.734;2023-09-08T17:15:54;100556.28;;;24.49;60.71
78014;BME280;67222;50.182;8.734;2023-09-08T17:18:19;100555.09;;;24.36;61.00
78014;BME280;67222;50.182;8.734;2023-09-08T17:20:45;100554.88;;;24.28;62.63
78014;BME280;67222;50.182;8.734;2023-09-08T17:23:11;100556.06;;;24.22;64.80